Time;durP1;ratioP1;P1;durP2;ratioP2;P2;SDS_P1;SDS_P2;PMS_P1;PMS_P2;Temp;Humidity;BMP_temperature;BMP_pressure;BME280_temperature;BME280_humidity;BME280_pressure;Samples;Min_cycle;Max_cycle;Signal;HPM_P1;HPM_P2
2023/03/24 00:02:19;;;;;;;3.80;2.40;;;13.10;99.90;;;;;;5030406;28;20281;-69
2023/03/24 00:04:48;;;;;;;6.40;2.60;;;13.10;99.90;;;;;;5046221;28;20223;-68
2023/03/24 00:07:15;;;;;;;4.90;2.73;;;13.10;99.90;;;;;;5029107;28;20470;-69
2023/03/24 00:09:41;;;;;;;2.80;2.53;;;13.00;99.90;;;;;;5038533;28;20491;-69
2023/03/24 00:12:09;;;;;;;2.97;2.57;;;13.00;99.90;;;;;;5034643;28;20496;-72
2023/03/24 00:14:37;;;;;;;4.37;2.50;;;13.10;99.90;;;;;;5028135;28;20553;-69
2023/03/24 00:17:05;;;;;;;2.50;2.30;;;13.10;99.90;;;;;;5042788;28;20470;-69
2023/03/24 00:19:32;;;;;;;3.60;3.10;;;13.10;99.90;;;;;;5032630;28;21013;-70
2023/03/24 00:21:59;;;;;;;3.23;2.63;;;13.10;99.90;;;;;;5036638;28;20486;-68
2023/03/24 00:24:26;;;;;;;3.10;2.43;;;13.10;99.90;;;;;;5016722;28;20465;-68
2023/03/24 00:26:56;;;;;;;3.73;3.43;;;13.20;99.90;;;;;;5027654;28;20461;-69
2023/03/24 00:29:24;;;;;;;3.40;2.30;;;13.20;99.90;;;;;;5024633;28;20541;-69
2023/03/24 00:31:51;;;;;;;2.70;2.50;;;13.20;99.90;;;;;;5045897;28;20462;-69
2023/03/24 00:34:21;;;;;;;2.77;2.57;;;13.20;99.90;;;;;;5019089;28;20471;-69
2023/03/24 00:36:49;;;;;;;3.43;3.13;;;13.20;99.90;;;;;;5012429;28;20476;-69
2023/03/24 00:39:18;;;;;;;3.00;2.80;;;13.20;99.90;;;;;;5012045;28;20809;-69
2023/03/24 00:41:46;;;;;;;2.80;2.40;;;13.20;99.90;;;;;;5026842;28;20534;-69
2023/03/24 00:44:16;;;;;;;2.80;2.20;;;13.20;99.90;;;;;;5031413;28;20461;-70
2023/03/24 00:46:54;;;;;;;2.87;2.53;;;13.20;99.90;;;;;;5012043;28;20469;-69
2023/03/24 00:49:43;;;;;;;2.27;2.03;;;13.20;99.90;;;;;;5010133;28;20500;-70
2023/03/24 00:52:19;;;;;;;4.37;2.50;;;13.20;99.90;;;;;;5012275;28;20493;-69
2023/03/24 00:54:50;;;;;;;2.50;2.07;;;13.20;99.90;;;;;;5020928;28;20456;-70
2023/03/24 00:57:20;;;;;;;2.57;2.33;;;13.20;99.90;;;;;;5008736;28;20571;-69
2023/03/24 00:59:50;;;;;;;7.20;2.40;;;13.20;99.90;;;;;;5029086;28;20844;-69
2023/03/24 01:02:23;;;;;;;2.27;2.10;;;13.20;99.90;;;;;;5034790;28;20487;-70
2023/03/24 01:04:57;;;;;;;4.83;2.87;;;13.20;99.90;;;;;;5011333;28;20522;-69
2023/03/24 01:07:24;;;;;;;3.07;2.50;;;13.20;99.90;;;;;;5041563;28;20467;-70
2023/03/24 01:09:56;;;;;;;3.40;2.60;;;13.10;99.90;;;;;;5031728;28;20547;-69
2023/03/24 01:12:31;;;;;;;4.00;2.60;;;13.10;99.90;;;;;;5024905;28;20465;-69
2023/03/24 01:14:58;;;;;;;2.93;2.63;;;13.10;99.90;;;;;;5031538;28;20462;-69
2023/03/24 01:17:25;;;;;;;3.33;3.03;;;13.10;99.90;;;;;;5049156;28;20477;-69
2023/03/24 01:19:51;;;;;;;3.50;3.20;;;13.00;99.90;;;;;;5013236;28;20836;-68
2023/03/24 01:22:19;;;;;;;3.30;2.30;;;13.00;99.90;;;;;;5025919;28;20451;-69
2023/03/24 01:24:46;;;;;;;4.67;2.50;;;13.10;99.90;;;;;;5012504;28;20994;-69
2023/03/24 01:27:12;;;;;;;2.77;2.40;;;13.10;99.90;;;;;;5014721;28;20889;-69
2023/03/24 01:29:38;;;;;;;3.33;2.30;;;13.10;99.90;;;;;;5016541;28;20463;-69
2023/03/24 01:32:04;;;;;;;3.17;2.53;;;13.00;99.90;;;;;;5034573;28;20228;-68
2023/03/24 01:34:30;;;;;;;3.60;2.93;;;13.00;99.90;;;;;;5028485;28;20481;-69
2023/03/24 01:36:56;;;;;;;5.83;2.87;;;12.90;99.90;;;;;;5040887;28;20983;-70
2023/03/24 01:39:22;;;;;;;3.23;2.90;;;12.80;99.90;;;;;;5015149;28;20589;-68
2023/03/24 01:41:48;;;;;;;3.03;2.40;;;12.80;99.90;;;;;;5024530;28;20604;-69
2023/03/24 01:44:34;;;;;;;2.50;2.30;;;12.90;99.90;;;;;;5022598;28;20230;-72
2023/03/24 01:47:01;;;;;;;2.90;2.53;;;12.80;99.90;;;;;;5029655;28;20576;-71
2023/03/24 01:49:44;;;;;;;2.80;2.57;;;12.80;99.90;;;;;;5030740;28;20520;-71
2023/03/24 01:52:18;;;;;;;3.37;2.90;;;12.80;99.90;;;;;;5043013;28;20443;-69
2023/03/24 01:54:53;;;;;;;2.97;2.67;;;12.70;99.90;;;;;;5014067;28;20466;-69
2023/03/24 01:57:30;;;;;;;2.90;2.50;;;12.80;99.90;;;;;;5025822;28;20505;-69
2023/03/24 01:59:58;;;;;;;2.93;2.20;;;12.70;99.90;;;;;;5030640;28;20530;-67
2023/03/24 02:02:45;;;;;;;4.03;2.80;;;12.80;99.90;;;;;;5029372;28;20457;-69
2023/03/24 02:05:14;;;;;;;4.17;2.63;;;12.80;99.90;;;;;;5029423;28;20499;-69
2023/03/24 02:07:52;;;;;;;4.17;2.47;;;12.80;99.90;;;;;;5029877;28;20480;-71
2023/03/24 02:10:20;;;;;;;3.47;2.50;;;12.90;99.90;;;;;;5019800;28;20461;-69
2023/03/24 02:12:47;;;;;;;2.90;2.57;;;12.80;99.90;;;;;;5047370;28;21091;-69
2023/03/24 02:15:17;;;;;;;2.90;2.60;;;12.90;99.90;;;;;;5031167;28;20463;-69
2023/03/24 02:17:58;;;;;;;4.03;2.50;;;12.90;99.90;;;;;;5027530;28;21061;-69
2023/03/24 02:21:04;;;;;;;3.27;2.87;;;12.90;99.90;;;;;;5032240;28;20465;-69
2023/03/24 02:24:06;;;;;;;4.80;2.80;;;12.90;99.90;;;;;;5026079;28;20446;-69
2023/03/24 02:26:54;;;;;;;7.50;2.43;;;12.90;99.90;;;;;;5010270;28;20492;-69
2023/03/24 02:29:30;;;;;;;4.33;2.90;;;12.90;99.90;;;;;;5002641;28;20578;-70
2023/03/24 02:32:16;;;;;;;3.57;2.47;;;12.90;99.90;;;;;;5005045;28;20459;-69
2023/03/24 02:34:58;;;;;;;3.40;3.10;;;12.90;99.90;;;;;;4998927;28;20471;-70
2023/03/24 02:37:32;;;;;;;3.30;2.80;;;12.80;99.90;;;;;;4995948;28;20502;-68
2023/03/24 02:40:24;;;;;;;2.60;2.40;;;12.80;99.90;;;;;;5031786;28;20446;-68
2023/03/24 02:43:11;;;;;;;4.93;3.60;;;12.60;99.90;;;;;;5019955;28;20457;-69
2023/03/24 02:46:16;;;;;;;3.77;3.43;;;12.60;99.90;;;;;;5031424;28;20836;-70
2023/03/24 02:48:54;;;;;;;3.40;3.10;;;12.60;99.90;;;;;;5008605;28;20486;-72
2023/03/24 02:51:39;;;;;;;4.23;3.37;;;12.60;99.90;;;;;;5019832;28;20852;-69
2023/03/24 02:54:20;;;;;;;4.80;3.60;;;12.60;99.90;;;;;;5019116;28;20453;-69
2023/03/24 02:56:54;;;;;;;2.90;2.70;;;12.70;99.90;;;;;;5030990;28;20468;-69
2023/03/24 02:59:36;;;;;;;3.70;3.20;;;12.70;99.90;;;;;;5004000;28;20500;-69
2023/03/24 03:02:11;;;;;;;5.63;3.40;;;12.80;99.90;;;;;;5030662;28;20467;-68
2023/03/24 03:05:12;;;;;;;5.70;3.80;;;12.80;99.90;;;;;;5032965;28;20542;-69
2023/03/24 03:07:41;;;;;;;4.57;3.43;;;12.80;99.90;;;;;;5026197;28;20454;-69
2023/03/24 03:10:13;;;;;;;4.20;3.53;;;12.80;99.90;;;;;;5014265;28;20838;-69
2023/03/24 03:12:41;;;;;;;3.60;2.53;;;12.80;99.90;;;;;;5011041;28;20458;-69
2023/03/24 03:15:33;;;;;;;5.07;3.77;;;12.80;99.90;;;;;;5013800;28;20466;-68
2023/03/24 03:18:14;;;;;;;3.80;3.10;;;12.80;99.90;;;;;;5025473;28;20457;-68
2023/03/24 03:20:52;;;;;;;4.30;3.90;;;12.80;99.90;;;;;;5020349;28;20466;-68
2023/03/24 03:23:48;;;;;;;5.27;3.90;;;12.80;99.90;;;;;;5017186;28;20553;-68
2023/03/24 03:26:18;;;;;;;4.23;3.40;;;12.70;99.90;;;;;;5045689;28;20458;-69
2023/03/24 03:28:56;;;;;;;4.97;4.17;;;12.70;99.90;;;;;;5044383;28;20489;-69
2023/03/24 03:31:28;;;;;;;5.07;4.57;;;12.70;99.90;;;;;;5025436;28;20469;-69
2023/03/24 03:34:17;;;;;;;3.87;3.47;;;12.70;99.90;;;;;;5029541;28;20481;-68
2023/03/24 03:36:54;;;;;;;5.90;4.70;;;12.70;99.90;;;;;;5013509;28;20459;-69
2023/03/24 03:39:28;;;;;;;6.10;4.70;;;12.70;99.90;;;;;;5048263;28;20461;-69
2023/03/24 03:41:56;;;;;;;7.40;4.40;;;12.60;99.90;;;;;;5044663;28;21036;-69
2023/03/24 03:44:22;;;;;;;8.90;4.77;;;12.70;99.90;;;;;;5064090;28;20603;-69
2023/03/24 03:46:48;;;;;;;7.40;5.27;;;12.70;99.90;;;;;;5029846;28;20999;-69
2023/03/24 03:49:21;;;;;;;10.23;4.90;;;12.70;99.90;;;;;;5026533;28;20481;-69
2023/03/24 03:51:49;;;;;;;6.17;4.73;;;12.60;99.90;;;;;;5028527;28;20457;-68
2023/03/24 03:54:15;;;;;;;8.80;4.80;;;12.60;99.90;;;;;;5030624;28;20466;-69
2023/03/24 03:56:45;;;;;;;6.63;5.13;;;12.60;99.90;;;;;;5028806;28;20499;-71
2023/03/24 03:59:32;;;;;;;7.70;5.50;;;12.60;99.90;;;;;;4997761;28;20995;-71
2023/03/24 04:02:20;;;;;;;7.20;5.83;;;12.60;99.90;;;;;;5021562;28;20468;-70
2023/03/24 04:05:18;;;;;;;6.80;4.83;;;12.60;99.90;;;;;;5024005;28;20509;-71
2023/03/24 04:07:57;;;;;;;8.97;5.37;;;12.70;99.90;;;;;;5059782;28;20451;-72
2023/03/24 04:10:56;;;;;;;6.53;4.93;;;12.70;99.90;;;;;;5016764;28;20457;-72
2023/03/24 04:13:46;;;;;;;7.10;4.83;;;12.70;99.90;;;;;;5030104;28;20527;-72
2023/03/24 04:16:50;;;;;;;7.67;5.70;;;12.70;99.90;;;;;;5027904;28;20481;-72
2023/03/24 04:19:43;;;;;;;5.47;4.97;;;12.70;99.90;;;;;;5016661;28;20568;-71
2023/03/24 04:22:18;;;;;;;6.67;5.07;;;12.70;99.90;;;;;;5031218;28;20459;-72
2023/03/24 04:24:55;;;;;;;8.37;5.40;;;12.70;99.90;;;;;;5009496;28;20506;-71
2023/03/24 04:27:37;;;;;;;5.30;4.80;;;12.70;99.90;;;;;;5026580;28;20456;-71
2023/03/24 04:30:29;;;;;;;8.00;5.43;;;12.70;99.90;;;;;;5030567;28;20450;-69
2023/03/24 04:33:17;;;;;;;8.27;4.57;;;12.70;99.90;;;;;;5011950;28;20461;-70
2023/03/24 04:35:54;;;;;;;13.00;5.53;;;12.70;99.90;;;;;;5024893;28;20461;-69
2023/03/24 04:38:35;;;;;;;6.37;5.00;;;12.70;99.90;;;;;;5016006;28;20466;-69
2023/03/24 04:41:18;;;;;;;9.03;5.73;;;12.60;99.90;;;;;;5028676;28;20454;-69
2023/03/24 04:43:56;;;;;;;7.20;4.77;;;12.60;99.90;;;;;;5022794;28;20565;-69
2023/03/24 04:46:22;;;;;;;5.97;5.30;;;12.60;99.90;;;;;;5013420;28;21060;-69
2023/03/24 04:48:55;;;;;;;7.37;5.37;;;12.60;99.90;;;;;;5016082;28;20457;-68
2023/03/24 04:51:30;;;;;;;7.30;5.00;;;12.70;99.90;;;;;;5033697;28;20455;-69
2023/03/24 04:54:04;;;;;;;6.80;5.67;;;12.70;99.90;;;;;;5030421;28;20537;-69
2023/03/24 04:56:46;;;;;;;5.97;5.10;;;12.80;99.90;;;;;;5024828;28;20483;-69
2023/03/24 04:59:41;;;;;;;4.30;3.90;;;12.70;99.90;;;;;;5022820;28;20442;-69
2023/03/24 05:02:08;;;;;;;10.20;4.20;;;12.70;99.90;;;;;;5016172;28;20457;-69
2023/03/24 05:04:52;;;;;;;4.60;3.87;;;12.70;99.90;;;;;;5049625;28;21044;-70
2023/03/24 05:07:38;;;;;;;8.63;3.70;;;12.70;99.90;;;;;;5018989;28;20470;-69
2023/03/24 05:10:10;;;;;;;3.60;3.30;;;12.70;99.90;;;;;;5023971;28;20558;-70
2023/03/24 05:12:44;;;;;;;5.00;4.13;;;12.60;99.90;;;;;;5038817;28;20463;-69
2023/03/24 05:15:18;;;;;;;4.87;3.70;;;12.70;99.90;;;;;;5045213;28;20480;-69
2023/03/24 05:17:46;;;;;;;6.20;3.60;;;12.70;99.90;;;;;;5057500;28;20513;-68
2023/03/24 05:20:13;;;;;;;5.03;3.70;;;12.70;99.90;;;;;;5032879;28;20462;-69
2023/03/24 05:22:42;;;;;;;4.70;3.60;;;12.60;99.90;;;;;;5015741;28;20507;-69
2023/03/24 05:25:08;;;;;;;5.17;3.90;;;12.60;99.90;;;;;;5047851;28;20462;-69
2023/03/24 05:27:34;;;;;;;6.03;4.27;;;12.60;99.90;;;;;;5032143;28;20219;-69
2023/03/24 05:30:10;;;;;;;6.63;4.10;;;12.60;99.90;;;;;;5032236;28;20463;-70
2023/03/24 05:32:36;;;;;;;3.27;2.97;;;12.60;99.90;;;;;;5025053;28;20514;-68
2023/03/24 05:35:03;;;;;;;4.17;2.97;;;12.60;99.90;;;;;;5027879;28;20463;-69
2023/03/24 05:37:31;;;;;;;3.40;3.00;;;12.50;99.90;;;;;;5008804;28;20748;-70
2023/03/24 05:39:57;;;;;;;2.30;2.10;;;12.50;99.90;;;;;;5006549;28;20456;-68
2023/03/24 05:42:43;;;;;;;4.03;3.50;;;12.50;99.90;;;;;;5035457;28;20221;-70
2023/03/24 05:45:11;;;;;;;3.40;2.80;;;12.50;99.90;;;;;;5032595;28;20481;-70
2023/03/24 05:47:37;;;;;;;3.10;2.70;;;12.40;99.90;;;;;;5042203;28;20484;-70
2023/03/24 05:50:03;;;;;;;3.17;2.50;;;12.40;99.90;;;;;;5030926;28;20528;-72
2023/03/24 05:52:30;;;;;;;2.63;2.43;;;12.40;99.90;;;;;;5015450;28;20214;-72
2023/03/24 05:55:09;;;;;;;2.37;2.17;;;12.40;99.90;;;;;;5027675;28;20454;-71
2023/03/24 05:57:35;;;;;;;2.60;2.40;;;12.40;99.90;;;;;;5015815;28;20473;-71
2023/03/24 06:00:17;;;;;;;2.50;2.30;;;12.50;99.90;;;;;;5033337;28;20511;-72
2023/03/24 06:03:06;;;;;;;2.43;2.07;;;12.50;99.90;;;;;;5026676;28;20480;-71
2023/03/24 06:05:37;;;;;;;2.40;2.20;;;12.50;99.90;;;;;;5013130;28;20532;-71
2023/03/24 06:08:03;;;;;;;4.40;2.70;;;12.40;99.90;;;;;;5030191;28;20460;-71
2023/03/24 06:10:31;;;;;;;2.67;2.47;;;12.40;99.90;;;;;;5020532;28;20271;-71
2023/03/24 06:12:59;;;;;;;1.80;1.70;;;12.50;99.90;;;;;;5024459;28;20457;-72
2023/03/24 06:15:26;;;;;;;2.13;1.93;;;12.60;99.90;;;;;;5025116;28;20553;-69
2023/03/24 06:17:54;;;;;;;4.77;2.07;;;12.60;99.90;;;;;;5030557;28;21027;-66
2023/03/24 06:20:40;;;;;;;3.17;2.30;;;12.60;99.90;;;;;;5033709;28;20515;-67
2023/03/24 06:23:09;;;;;;;2.60;2.37;;;12.70;99.90;;;;;;5028277;28;20513;-69
2023/03/24 06:25:49;;;;;;;1.90;1.70;;;12.70;99.90;;;;;;5025438;28;21126;-69
2023/03/24 06:28:25;;;;;;;2.53;2.33;;;12.70;99.90;;;;;;5028821;28;20521;-69
2023/03/24 06:30:51;;;;;;;2.63;2.43;;;12.70;99.90;;;;;;4986595;28;20475;-69
2023/03/24 06:33:24;;;;;;;2.90;2.57;;;12.80;99.90;;;;;;5031401;28;20492;-68
2023/03/24 06:35:52;;;;;;;2.63;2.43;;;12.80;99.90;;;;;;5011170;28;20481;-70
2023/03/24 06:38:18;;;;;;;2.70;2.50;;;12.80;99.90;;;;;;4990610;28;20478;-70
2023/03/24 06:40:44;;;;;;;2.50;2.30;;;12.80;99.90;;;;;;5014856;28;20458;-69
2023/03/24 06:43:10;;;;;;;2.53;2.27;;;12.80;99.90;;;;;;5016302;28;20493;-70
2023/03/24 06:45:38;;;;;;;2.90;2.60;;;12.80;99.90;;;;;;5020905;28;20929;-70
2023/03/24 06:48:05;;;;;;;3.40;3.10;;;12.80;99.90;;;;;;5026791;28;20436;-70
2023/03/24 06:50:34;;;;;;;3.30;3.00;;;12.80;99.90;;;;;;5011098;28;20461;-69
2023/03/24 06:53:04;;;;;;;3.30;2.87;;;12.80;99.90;;;;;;5023247;28;20458;-70
2023/03/24 06:55:32;;;;;;;2.80;2.60;;;12.80;99.90;;;;;;5027488;28;20464;-70
2023/03/24 06:57:57;;;;;;;6.10;3.80;;;12.90;99.90;;;;;;5024623;28;20470;-71
2023/03/24 07:00:24;;;;;;;5.13;3.60;;;12.90;99.90;;;;;;5048928;28;20313;-69
2023/03/24 07:03:01;;;;;;;4.33;3.73;;;12.90;99.90;;;;;;5014574;28;20598;-69
2023/03/24 07:05:27;;;;;;;4.17;3.57;;;12.90;99.90;;;;;;5039740;28;20465;-69
2023/03/24 07:07:53;;;;;;;3.63;3.30;;;12.90;99.90;;;;;;5006023;28;20462;-68
2023/03/24 07:10:45;;;;;;;3.80;3.50;;;12.90;99.90;;;;;;5040710;28;20470;-69
2023/03/24 07:13:11;;;;;;;4.00;3.70;;;12.90;99.90;;;;;;5029268;28;20842;-69
2023/03/24 07:15:39;;;;;;;3.23;3.03;;;12.90;99.90;;;;;;5024999;28;20223;-71
2023/03/24 07:18:05;;;;;;;3.80;3.07;;;12.90;99.90;;;;;;5020813;28;20470;-69
2023/03/24 07:20:40;;;;;;;3.77;3.47;;;12.90;99.90;;;;;;5002243;28;20467;-69
2023/03/24 07:23:11;;;;;;;3.73;3.20;;;12.90;99.90;;;;;;5026067;28;20489;-69
2023/03/24 07:25:43;;;;;;;4.00;3.43;;;12.90;99.90;;;;;;5016354;28;21014;-71
2023/03/24 07:28:17;;;;;;;4.90;4.00;;;12.90;99.90;;;;;;5023707;28;20541;-70
2023/03/24 07:30:43;;;;;;;3.50;3.20;;;13.00;99.90;;;;;;5029436;28;20549;-69
2023/03/24 07:33:11;;;;;;;4.20;3.20;;;13.00;99.90;;;;;;5026669;28;20237;-69
2023/03/24 07:35:38;;;;;;;4.63;4.03;;;12.90;99.90;;;;;;5024711;28;20485;-71
2023/03/24 07:38:05;;;;;;;3.20;2.90;;;12.90;99.90;;;;;;5002389;28;20561;-70
2023/03/24 07:40:33;;;;;;;4.60;3.90;;;13.00;99.90;;;;;;5019288;28;20536;-70
2023/03/24 07:43:00;;;;;;;4.00;3.60;;;12.90;99.90;;;;;;5012296;28;20819;-70
2023/03/24 07:45:52;;;;;;;6.70;3.63;;;13.00;99.90;;;;;;5037996;28;20920;-69
2023/03/24 07:48:18;;;;;;;5.17;3.83;;;13.00;99.90;;;;;;5010282;28;20474;-70
2023/03/24 07:50:44;;;;;;;4.00;3.60;;;12.90;99.90;;;;;;5028376;28;20621;-70
2023/03/24 07:53:31;;;;;;;4.40;4.00;;;12.90;99.90;;;;;;5023576;28;20226;-69
2023/03/24 07:55:56;;;;;;;5.97;5.30;;;12.90;99.90;;;;;;5038279;28;20470;-70
2023/03/24 07:58:23;;;;;;;4.60;4.03;;;12.90;99.90;;;;;;5041855;28;20550;-70
2023/03/24 08:01:18;;;;;;;6.37;4.77;;;12.90;99.90;;;;;;5012709;28;20832;-71
2023/03/24 08:03:47;;;;;;;5.20;4.17;;;12.90;99.90;;;;;;5006647;28;20485;-70
2023/03/24 08:06:16;;;;;;;4.90;4.50;;;12.90;99.90;;;;;;5039549;28;20875;-70
2023/03/24 08:08:50;;;;;;;5.20;4.20;;;12.90;99.90;;;;;;5012928;28;20466;-69
2023/03/24 08:11:15;;;;;;;4.10;3.67;;;13.00;99.90;;;;;;5016069;28;21041;-69
2023/03/24 08:13:41;;;;;;;4.20;3.80;;;13.00;99.90;;;;;;5003355;28;20242;-69
2023/03/24 08:16:07;;;;;;;4.77;3.80;;;13.00;99.90;;;;;;5011239;28;20228;-70
2023/03/24 08:18:33;;;;;;;4.47;4.07;;;13.00;99.90;;;;;;5025179;28;20656;-70
2023/03/24 08:21:01;;;;;;;4.67;4.20;;;13.00;99.90;;;;;;5002522;28;20497;-70
2023/03/24 08:23:27;;;;;;;4.00;3.60;;;13.10;99.90;;;;;;5036660;28;20986;-69
2023/03/24 08:25:53;;;;;;;5.93;4.40;;;13.10;99.90;;;;;;5008376;28;20911;-70
2023/03/24 08:28:19;;;;;;;4.03;3.73;;;13.10;99.90;;;;;;5029760;28;20481;-69
2023/03/24 08:30:44;;;;;;;3.00;2.70;;;13.10;99.90;;;;;;5049653;28;20454;-70
2023/03/24 08:33:12;;;;;;;3.53;3.23;;;13.10;99.90;;;;;;5045070;28;20299;-69
2023/03/24 08:35:38;;;;;;;3.57;3.10;;;13.10;99.90;;;;;;5001330;28;20216;-69
2023/03/24 08:38:05;;;;;;;4.20;3.80;;;13.10;99.90;;;;;;5021492;28;20501;-70
2023/03/24 08:40:33;;;;;;;3.30;3.00;;;13.10;99.90;;;;;;5031957;28;20493;-70
2023/03/24 08:43:02;;;;;;;3.70;3.40;;;13.10;99.90;;;;;;5025442;28;20500;-71
2023/03/24 08:45:30;;;;;;;3.27;2.97;;;13.10;99.90;;;;;;5030823;28;20475;-68
2023/03/24 08:47:58;;;;;;;2.07;1.90;;;13.10;99.90;;;;;;5020029;28;20462;-68
2023/03/24 08:50:27;;;;;;;1.40;1.30;;;12.80;99.90;;;;;;5031774;28;20479;-70
2023/03/24 08:52:54;;;;;;;0.87;0.80;;;12.70;99.90;;;;;;5021092;28;20488;-69
2023/03/24 08:55:24;;;;;;;0.90;0.90;;;12.50;99.90;;;;;;5015497;28;20496;-69
2023/03/24 08:57:50;;;;;;;0.80;0.80;;;12.30;99.90;;;;;;5032637;28;20566;-69
2023/03/24 09:00:17;;;;;;;0.90;0.80;;;12.40;99.90;;;;;;5004421;28;20893;-69
2023/03/24 09:02:45;;;;;;;0.83;0.70;;;12.40;99.90;;;;;;5029881;28;20479;-70
2023/03/24 09:05:12;;;;;;;0.57;0.47;;;12.30;99.90;;;;;;5046896;28;20532;-69
2023/03/24 09:07:38;;;;;;;0.70;0.70;;;12.20;99.90;;;;;;5017593;28;20512;-69
2023/03/24 09:10:08;;;;;;;1.10;1.00;;;12.20;99.90;;;;;;5030932;28;20985;-69
2023/03/24 09:12:36;;;;;;;0.50;0.50;;;12.20;99.90;;;;;;5029765;28;20461;-70
2023/03/24 09:15:03;;;;;;;1.10;0.70;;;12.20;99.90;;;;;;5013969;28;20518;-70
2023/03/24 09:17:29;;;;;;;1.00;1.00;;;12.20;99.90;;;;;;5020753;28;20477;-69
2023/03/24 09:19:55;;;;;;;1.10;1.00;;;12.20;99.90;;;;;;5021814;28;20529;-69
2023/03/24 09:22:21;;;;;;;6.83;1.10;;;12.20;99.90;;;;;;5042738;28;20466;-67
2023/03/24 09:24:48;;;;;;;1.17;1.00;;;12.20;99.90;;;;;;5046591;28;20636;-69
2023/03/24 09:27:17;;;;;;;1.10;1.00;;;12.20;99.90;;;;;;5014871;28;20222;-69
2023/03/24 09:29:42;;;;;;;0.80;0.80;;;12.20;99.90;;;;;;5043075;28;20461;-69
2023/03/24 09:32:08;;;;;;;1.30;1.20;;;12.10;99.90;;;;;;5030026;28;20460;-69
2023/03/24 09:34:37;;;;;;;1.33;0.63;;;12.10;99.90;;;;;;5035635;28;20590;-70
2023/03/24 09:37:03;;;;;;;0.60;0.60;;;12.00;99.90;;;;;;5028330;28;20236;-69
2023/03/24 09:39:29;;;;;;;1.43;0.73;;;11.90;99.90;;;;;;5027445;28;20463;-69
2023/03/24 09:41:55;;;;;;;0.60;0.60;;;11.90;99.90;;;;;;5028221;28;20463;-71
2023/03/24 09:44:26;;;;;;;0.63;0.57;;;11.90;99.90;;;;;;5028746;28;20718;-71
2023/03/24 09:47:13;;;;;;;0.67;0.57;;;11.80;99.90;;;;;;5017988;28;20463;-69
2023/03/24 09:49:41;;;;;;;0.60;0.60;;;11.80;99.90;;;;;;5019668;28;20832;-72
2023/03/24 09:52:12;;;;;;;1.57;0.60;;;11.70;99.90;;;;;;5028129;28;20451;-71
2023/03/24 09:54:43;;;;;;;0.50;0.40;;;11.70;99.90;;;;;;5031684;28;20473;-71
2023/03/24 09:57:19;;;;;;;0.70;0.70;;;11.80;99.90;;;;;;5018369;28;20468;-71
2023/03/24 09:59:45;;;;;;;0.60;0.60;;;11.70;99.90;;;;;;5011519;28;20470;-72
2023/03/24 10:02:15;;;;;;;0.50;0.50;;;11.70;99.90;;;;;;5027434;28;20486;-71
2023/03/24 10:04:41;;;;;;;0.50;0.50;;;11.60;99.90;;;;;;5027588;28;20936;-70
2023/03/24 10:07:41;;;;;;;0.70;0.60;;;11.70;99.90;;;;;;5034323;28;20462;-72
2023/03/24 10:10:20;;;;;;;0.90;0.60;;;11.80;99.90;;;;;;4953956;28;20464;-72
2023/03/24 10:12:48;;;;;;;1.87;1.77;;;11.80;99.90;;;;;;5022398;28;20507;-72
2023/03/24 10:15:31;;;;;;;13.77;10.17;;;11.90;99.90;;;;;;5022782;28;20523;-72
2023/03/24 10:18:05;;;;;;;8.17;5.93;;;12.10;99.90;;;;;;5015732;28;21049;-71
2023/03/24 10:20:34;;;;;;;14.47;11.07;;;12.20;99.90;;;;;;5025826;28;20454;-71
2023/03/24 10:23:41;;;;;;;9.43;7.30;;;12.40;99.90;;;;;;5021784;28;20469;-72
2023/03/24 10:26:34;;;;;;;6.90;6.10;;;12.60;99.90;;;;;;5029512;28;20467;-71
2023/03/24 10:29:32;;;;;;;2.70;2.50;;;12.80;99.90;;;;;;5019346;28;20496;-71
2023/03/24 10:32:15;;;;;;;2.50;1.73;;;13.10;99.90;;;;;;5029181;28;20994;-72
2023/03/24 10:34:43;;;;;;;1.20;1.10;;;13.30;99.90;;;;;;5039537;28;20516;-70
2023/03/24 10:37:10;;;;;;;1.43;1.33;;;13.30;99.90;;;;;;5007418;28;20510;-70
2023/03/24 10:39:36;;;;;;;1.23;1.13;;;13.30;99.90;;;;;;5035136;28;20506;-69
2023/03/24 10:42:03;;;;;;;1.70;1.60;;;13.30;99.90;;;;;;5042374;28;20465;-69
2023/03/24 10:44:29;;;;;;;3.30;2.60;;;13.20;99.90;;;;;;5032365;28;20463;-70
2023/03/24 10:46:58;;;;;;;10.73;6.97;;;13.10;99.90;;;;;;5019518;28;20554;-69
2023/03/24 10:49:24;;;;;;;5.23;4.20;;;13.10;99.90;;;;;;5038738;28;20466;-70
2023/03/24 10:52:00;;;;;;;5.70;4.30;;;13.00;99.90;;;;;;5012674;28;20467;-69
2023/03/24 10:54:28;;;;;;;2.30;1.63;;;13.00;99.90;;;;;;5044700;28;21044;-69
2023/03/24 10:56:57;;;;;;;1.33;1.13;;;12.90;99.90;;;;;;5041119;28;20474;-68
2023/03/24 10:59:37;;;;;;;2.23;1.10;;;12.80;99.90;;;;;;5027014;28;20465;-70
2023/03/24 11:02:08;;;;;;;1.73;1.47;;;12.80;99.90;;;;;;5037621;28;20462;-69
2023/03/24 11:04:39;;;;;;;3.57;1.00;;;12.80;99.90;;;;;;5011985;28;20465;-70
2023/03/24 11:07:11;;;;;;;1.43;1.03;;;12.70;99.90;;;;;;5020037;28;20465;-71
2023/03/24 11:09:43;;;;;;;1.23;1.10;;;12.80;99.90;;;;;;5028428;28;20449;-74
2023/03/24 11:12:30;;;;;;;1.80;1.00;;;12.90;99.90;;;;;;5044200;28;20478;-72
2023/03/24 11:15:16;;;;;;;6.77;1.90;;;13.00;99.90;;;;;;5056538;28;20466;-72
2023/03/24 11:17:42;;;;;;;3.37;1.37;;;13.10;99.90;;;;;;5037571;28;20462;-72
2023/03/24 11:20:38;;;;;;;1.90;0.97;;;13.20;99.90;;;;;;5023308;28;20453;-72
2023/03/24 11:23:24;;;;;;;6.20;4.53;;;13.30;99.90;;;;;;5026552;28;20458;-70
2023/03/24 11:26:12;;;;;;;7.33;2.20;;;13.40;99.90;;;;;;5040088;28;20472;-70
2023/03/24 11:28:44;;;;;;;5.60;3.37;;;13.50;99.90;;;;;;5025557;28;20474;-72
2023/03/24 11:31:17;;;;;;;8.57;3.87;;;13.70;99.90;;;;;;5017407;28;20462;-70
2023/03/24 11:34:06;;;;;;;5.80;3.50;;;13.70;99.90;;;;;;5018595;28;20865;-70
2023/03/24 11:36:32;;;;;;;2.37;2.17;;;13.70;99.90;;;;;;5015244;28;20515;-70
2023/03/24 11:39:00;;;;;;;1.93;1.53;;;13.80;99.90;;;;;;5025822;28;20485;-70
2023/03/24 11:41:27;;;;;;;1.20;1.10;;;13.90;99.90;;;;;;5010168;28;20470;-69
2023/03/24 11:44:16;;;;;;;0.93;0.80;;;14.10;99.90;;;;;;5021619;28;20932;-70
2023/03/24 11:46:43;;;;;;;1.33;1.23;;;14.20;99.90;;;;;;5016594;28;20462;-71
2023/03/24 11:49:15;;;;;;;1.33;1.23;;;14.30;99.90;;;;;;5023605;28;20482;-70
2023/03/24 11:51:43;;;;;;;3.90;1.30;;;14.30;99.90;;;;;;5041481;28;20475;-69
2023/03/24 11:54:13;;;;;;;2.73;0.93;;;14.40;99.90;;;;;;5037478;28;20469;-70
2023/03/24 11:56:43;;;;;;;1.03;0.67;;;14.50;99.90;;;;;;5019217;28;21083;-70
2023/03/24 11:59:41;;;;;;;4.00;1.00;;;14.70;99.90;;;;;;5018716;28;20482;-70
2023/03/24 12:02:06;;;;;;;1.63;0.80;;;14.80;99.90;;;;;;5042479;28;20994;-70
2023/03/24 12:04:45;;;;;;;1.10;1.00;;;14.80;99.90;;;;;;5024534;28;20459;-71
2023/03/24 12:07:42;;;;;;;2.70;1.23;;;14.90;99.90;;;;;;4995544;28;20224;-70
2023/03/24 12:10:22;;;;;;;5.53;2.20;;;15.00;99.90;;;;;;4999492;28;20529;-70
2023/03/24 12:12:51;;;;;;;2.47;2.17;;;15.20;99.90;;;;;;5021319;28;20471;-70
2023/03/24 12:15:20;;;;;;;3.63;2.70;;;15.40;99.90;;;;;;5013610;28;20538;-70
2023/03/24 12:18:24;;;;;;;11.40;7.33;;;15.40;99.90;;;;;;5038216;28;20475;-70
2023/03/24 12:20:58;;;;;;;6.97;4.30;;;15.60;99.90;;;;;;5043719;28;20451;-70
2023/03/24 12:23:33;;;;;;;4.37;2.13;;;15.60;99.90;;;;;;5023259;28;20467;-69
2023/03/24 12:26:13;;;;;;;2.90;1.07;;;15.40;99.90;;;;;;5049304;28;20461;-68
2023/03/24 12:28:51;;;;;;;1.33;0.97;;;15.40;99.90;;;;;;5011221;28;20465;-70
2023/03/24 12:31:41;;;;;;;3.80;1.37;;;15.40;99.90;;;;;;5028327;28;20512;-70
2023/03/24 12:34:32;;;;;;;1.53;1.40;;;15.50;99.90;;;;;;5047136;28;20541;-71
2023/03/24 12:37:14;;;;;;;2.37;1.07;;;15.50;99.90;;;;;;5005076;28;20490;-69
2023/03/24 12:40:09;;;;;;;2.60;1.33;;;15.90;99.90;;;;;;5000554;28;20460;-69
2023/03/24 12:42:45;;;;;;;3.77;0.90;;;16.00;99.90;;;;;;5009139;28;20459;-70
2023/03/24 12:45:22;;;;;;;1.20;1.10;;;16.00;99.90;;;;;;5040443;28;20490;-69
2023/03/24 12:48:15;;;;;;;2.90;1.37;;;16.10;99.90;;;;;;5051894;28;20829;-69
2023/03/24 12:51:07;;;;;;;1.87;1.40;;;16.10;99.90;;;;;;5022477;28;20618;-70
2023/03/24 12:54:03;;;;;;;1.83;1.50;;;16.30;99.90;;;;;;5011353;28;20462;-70
2023/03/24 12:56:46;;;;;;;3.40;2.37;;;16.50;99.90;;;;;;4999436;28;20547;-70
2023/03/24 12:59:22;;;;;;;10.50;6.80;;;16.50;99.90;;;;;;5028624;28;20458;-70
2023/03/24 13:02:03;;;;;;;4.27;3.77;;;16.40;99.90;;;;;;5021460;28;20563;-70
2023/03/24 13:04:32;;;;;;;2.20;2.00;;;16.40;99.90;;;;;;5028695;28;20449;-70
2023/03/24 13:07:10;;;;;;;5.43;2.40;;;16.50;99.90;;;;;;5015583;28;20465;-69
2023/03/24 13:09:40;;;;;;;3.13;2.83;;;16.40;99.90;;;;;;5051057;28;20454;-70
2023/03/24 13:12:24;;;;;;;2.63;1.67;;;16.30;99.90;;;;;;5030025;28;20454;-69
2023/03/24 13:15:12;;;;;;;2.10;1.63;;;16.40;99.90;;;;;;5050253;28;20506;-70
2023/03/24 13:18:05;;;;;;;2.30;2.20;;;16.30;99.90;;;;;;5028311;28;20533;-70
2023/03/24 13:20:49;;;;;;;2.90;1.77;;;16.30;99.90;;;;;;5045745;28;20467;-70
2023/03/24 13:23:33;;;;;;;3.17;1.70;;;16.40;99.90;;;;;;5051099;28;20458;-67